sensor_id;sensor_type;location;lat;lon;timestamp;P1;durP1;ratioP1;P2;durP2;ratioP2
21152;SDS011;10734;44.792;20.482;2023-06-19T00:00:08;8.32;;;5.95;;
21152;SDS011;10734;44.792;20.482;2023-06-19T00:02:42;8.90;;;6.10;;
21152;SDS011;10734;44.792;20.482;2023-06-19T00:05:10;9.45;;;6.68;;
21152;SDS011;10734;44.792;20.482;2023-06-19T00:07:38;12.70;;;6.22;;
21152;SDS011;10734;44.792;20.482;2023-06-19T00:10:06;9.43;;;6.10;;
21152;SDS011;10734;44.792;20.482;2023-06-19T00:12:33;10.52;;;6.63;;
21152;SDS011;10734;44.792;20.482;2023-06-19T00:15:00;8.73;;;5.93;;
21152;SDS011;10734;44.792;20.482;2023-06-19T00:17:28;7.45;;;6.22;;
21152;SDS011;10734;44.792;20.482;2023-06-19T00:19:56;7.88;;;5.70;;
21152;SDS011;10734;44.792;20.482;2023-06-19T00:22:24;8.68;;;6.25;;
21152;SDS011;10734;44.792;20.482;2023-06-19T00:24:53;8.73;;;5.80;;
21152;SDS011;10734;44.792;20.482;2023-06-19T00:27:20;12.05;;;6.07;;
21152;SDS011;10734;44.792;20.482;2023-06-19T00:29:48;12.02;;;6.38;;
21152;SDS011;10734;44.792;20.482;2023-06-19T00:32:16;7.93;;;5.95;;
21152;SDS011;10734;44.792;20.482;2023-06-19T00:34:43;9.45;;;5.78;;
21152;SDS011;10734;44.792;20.482;2023-06-19T00:37:11;9.32;;;5.80;;
21152;SDS011;10734;44.792;20.482;2023-06-19T00:39:40;9.18;;;5.90;;
21152;SDS011;10734;44.792;20.482;2023-06-19T00:42:11;8.77;;;6.82;;
21152;SDS011;10734;44.792;20.482;2023-06-19T00:44:39;8.60;;;5.82;;
21152;SDS011;10734;44.792;20.482;2023-06-19T00:47:07;8.65;;;6.30;;
21152;SDS011;10734;44.792;20.482;2023-06-19T00:49:34;7.68;;;6.40;;
21152;SDS011;10734;44.792;20.482;2023-06-19T00:52:02;13.93;;;5.93;;
21152;SDS011;10734;44.792;20.482;2023-06-19T00:54:29;7.32;;;5.43;;
21152;SDS011;10734;44.792;20.482;2023-06-19T00:56:57;8.77;;;5.95;;
21152;SDS011;10734;44.792;20.482;2023-06-19T00:59:24;9.00;;;5.85;;
21152;SDS011;10734;44.792;20.482;2023-06-19T01:01:52;8.23;;;5.55;;
21152;SDS011;10734;44.792;20.482;2023-06-19T01:04:20;11.70;;;6.53;;
21152;SDS011;10734;44.792;20.482;2023-06-19T01:06:54;11.45;;;6.15;;
21152;SDS011;10734;44.792;20.482;2023-06-19T01:09:32;8.73;;;6.40;;
21152;SDS011;10734;44.792;20.482;2023-06-19T01:12:08;10.27;;;5.85;;
21152;SDS011;10734;44.792;20.482;2023-06-19T01:14:54;7.55;;;6.45;;
21152;SDS011;10734;44.792;20.482;2023-06-19T01:17:25;12.48;;;6.65;;
21152;SDS011;10734;44.792;20.482;2023-06-19T01:19:54;8.98;;;5.88;;
21152;SDS011;10734;44.792;20.482;2023-06-19T01:22:30;14.10;;;6.50;;
21152;SDS011;10734;44.792;20.482;2023-06-19T01:24:59;9.60;;;6.07;;
21152;SDS011;10734;44.792;20.482;2023-06-19T01:27:25;8.65;;;6.80;;
21152;SDS011;10734;44.792;20.482;2023-06-19T01:29:58;9.05;;;6.78;;
21152;SDS011;10734;44.792;20.482;2023-06-19T01:35:13;8.43;;;6.30;;
21152;SDS011;10734;44.792;20.482;2023-06-19T01:37:41;7.65;;;6.30;;
21152;SDS011;10734;44.792;20.482;2023-06-19T01:40:10;9.35;;;5.95;;
21152;SDS011;10734;44.792;20.482;2023-06-19T01:42:38;11.63;;;6.45;;
21152;SDS011;10734;44.792;20.482;2023-06-19T01:45:06;9.38;;;6.55;;
21152;SDS011;10734;44.792;20.482;2023-06-19T01:47:33;9.15;;;6.53;;
21152;SDS011;10734;44.792;20.482;2023-06-19T01:50:01;11.20;;;6.45;;
21152;SDS011;10734;44.792;20.482;2023-06-19T01:52:28;11.40;;;6.47;;
21152;SDS011;10734;44.792;20.482;2023-06-19T01:54:54;7.00;;;5.55;;
21152;SDS011;10734;44.792;20.482;2023-06-19T01:57:22;9.68;;;5.80;;
21152;SDS011;10734;44.792;20.482;2023-06-19T01:59:50;9.70;;;6.32;;
21152;SDS011;10734;44.792;20.482;2023-06-19T02:02:18;11.82;;;6.35;;
21152;SDS011;10734;44.792;20.482;2023-06-19T02:04:46;11.60;;;6.50;;
21152;SDS011;10734;44.792;20.482;2023-06-19T02:07:14;8.40;;;6.18;;
21152;SDS011;10734;44.792;20.482;2023-06-19T02:09:41;13.20;;;6.32;;
21152;SDS011;10734;44.792;20.482;2023-06-19T02:12:09;9.48;;;5.95;;
21152;SDS011;10734;44.792;20.482;2023-06-19T02:14:37;8.55;;;6.13;;
21152;SDS011;10734;44.792;20.482;2023-06-19T02:17:05;7.38;;;6.38;;
21152;SDS011;10734;44.792;20.482;2023-06-19T02:19:33;6.13;;;5.43;;
21152;SDS011;10734;44.792;20.482;2023-06-19T02:22:01;8.07;;;6.00;;
21152;SDS011;10734;44.792;20.482;2023-06-19T02:24:28;8.02;;;5.82;;
21152;SDS011;10734;44.792;20.482;2023-06-19T02:26:56;7.47;;;5.63;;
21152;SDS011;10734;44.792;20.482;2023-06-19T02:29:24;8.52;;;6.28;;
21152;SDS011;10734;44.792;20.482;2023-06-19T02:31:51;9.70;;;5.45;;
21152;SDS011;10734;44.792;20.482;2023-06-19T02:34:19;8.73;;;5.65;;
21152;SDS011;10734;44.792;20.482;2023-06-19T02:36:45;6.00;;;5.00;;
21152;SDS011;10734;44.792;20.482;2023-06-19T02:39:14;9.60;;;5.57;;
21152;SDS011;10734;44.792;20.482;2023-06-19T02:41:42;6.38;;;5.28;;
21152;SDS011;10734;44.792;20.482;2023-06-19T02:44:13;7.45;;;5.65;;
21152;SDS011;10734;44.792;20.482;2023-06-19T02:46:41;6.60;;;5.50;;
21152;SDS011;10734;44.792;20.482;2023-06-19T02:49:08;5.90;;;4.70;;
21152;SDS011;10734;44.792;20.482;2023-06-19T02:51:36;9.32;;;5.30;;
21152;SDS011;10734;44.792;20.482;2023-06-19T02:54:06;7.13;;;5.95;;
21152;SDS011;10734;44.792;20.482;2023-06-19T02:56:34;8.00;;;5.97;;
21152;SDS011;10734;44.792;20.482;2023-06-19T02:59:01;8.32;;;5.65;;
21152;SDS011;10734;44.792;20.482;2023-06-19T03:01:29;8.55;;;6.05;;
21152;SDS011;10734;44.792;20.482;2023-06-19T03:03:57;8.85;;;6.70;;
21152;SDS011;10734;44.792;20.482;2023-06-19T03:06:25;8.60;;;6.00;;
21152;SDS011;10734;44.792;20.482;2023-06-19T03:08:52;10.50;;;6.43;;
21152;SDS011;10734;44.792;20.482;2023-06-19T03:11:20;6.05;;;5.05;;
21152;SDS011;10734;44.792;20.482;2023-06-19T03:13:50;6.43;;;4.78;;
21152;SDS011;10734;44.792;20.482;2023-06-19T03:16:19;9.40;;;5.78;;
21152;SDS011;10734;44.792;20.482;2023-06-19T03:18:47;6.90;;;5.63;;
21152;SDS011;10734;44.792;20.482;2023-06-19T03:23:47;6.00;;;5.40;;
21152;SDS011;10734;44.792;20.482;2023-06-19T03:26:15;5.90;;;5.30;;
21152;SDS011;10734;44.792;20.482;2023-06-19T03:28:43;5.97;;;4.68;;
21152;SDS011;10734;44.792;20.482;2023-06-19T03:31:09;7.65;;;6.10;;
21152;SDS011;10734;44.792;20.482;2023-06-19T03:33:39;6.63;;;4.95;;
21152;SDS011;10734;44.792;20.482;2023-06-19T03:36:08;7.28;;;5.60;;
21152;SDS011;10734;44.792;20.482;2023-06-19T03:38:35;8.48;;;6.10;;
21152;SDS011;10734;44.792;20.482;2023-06-19T03:41:02;8.05;;;6.20;;
21152;SDS011;10734;44.792;20.482;2023-06-19T03:43:32;7.53;;;5.85;;
21152;SDS011;10734;44.792;20.482;2023-06-19T03:46:00;8.90;;;5.50;;
21152;SDS011;10734;44.792;20.482;2023-06-19T03:48:28;8.77;;;5.25;;
21152;SDS011;10734;44.792;20.482;2023-06-19T03:50:55;9.60;;;5.82;;
21152;SDS011;10734;44.792;20.482;2023-06-19T03:53:23;8.63;;;5.30;;
21152;SDS011;10734;44.792;20.482;2023-06-19T03:55:51;10.25;;;6.18;;
21152;SDS011;10734;44.792;20.482;2023-06-19T03:58:22;10.73;;;6.40;;
21152;SDS011;10734;44.792;20.482;2023-06-19T04:00:49;10.00;;;6.13;;
21152;SDS011;10734;44.792;20.482;2023-06-19T04:03:15;10.38;;;6.85;;
21152;SDS011;10734;44.792;20.482;2023-06-19T04:05:43;12.13;;;6.75;;
21152;SDS011;10734;44.792;20.482;2023-06-19T04:08:12;10.00;;;5.60;;
21152;SDS011;10734;44.792;20.482;2023-06-19T04:10:39;11.43;;;7.20;;
21152;SDS011;10734;44.792;20.482;2023-06-19T04:13:07;12.75;;;7.43;;
21152;SDS011;10734;44.792;20.482;2023-06-19T04:15:35;9.13;;;6.50;;
21152;SDS011;10734;44.792;20.482;2023-06-19T04:18:04;7.72;;;6.55;;
21152;SDS011;10734;44.792;20.482;2023-06-19T04:20:32;12.98;;;6.28;;
21152;SDS011;10734;44.792;20.482;2023-06-19T04:23:01;8.95;;;7.15;;
21152;SDS011;10734;44.792;20.482;2023-06-19T04:25:29;13.65;;;7.00;;
21152;SDS011;10734;44.792;20.482;2023-06-19T04:27:58;12.00;;;6.40;;
21152;SDS011;10734;44.792;20.482;2023-06-19T04:30:26;10.77;;;6.78;;
21152;SDS011;10734;44.792;20.482;2023-06-19T04:32:54;10.57;;;5.72;;
21152;SDS011;10734;44.792;20.482;2023-06-19T04:35:21;7.90;;;5.65;;
21152;SDS011;10734;44.792;20.482;2023-06-19T04:37:55;9.70;;;6.57;;
21152;SDS011;10734;44.792;20.482;2023-06-19T04:40:23;10.38;;;6.40;;
21152;SDS011;10734;44.792;20.482;2023-06-19T04:42:53;11.32;;;6.10;;
21152;SDS011;10734;44.792;20.482;2023-06-19T04:45:21;7.82;;;5.80;;
21152;SDS011;10734;44.792;20.482;2023-06-19T04:47:49;8.35;;;5.50;;
21152;SDS011;10734;44.792;20.482;2023-06-19T04:50:20;9.60;;;5.40;;
21152;SDS011;10734;44.792;20.482;2023-06-19T04:52:49;7.95;;;5.40;;
21152;SDS011;10734;44.792;20.482;2023-06-19T04:55:19;10.60;;;6.80;;
21152;SDS011;10734;44.792;20.482;2023-06-19T04:57:47;9.73;;;5.75;;
21152;SDS011;10734;44.792;20.482;2023-06-19T05:00:16;9.00;;;5.43;;
21152;SDS011;10734;44.792;20.482;2023-06-19T05:02:46;11.20;;;5.47;;
21152;SDS011;10734;44.792;20.482;2023-06-19T05:05:15;6.72;;;5.22;;
21152;SDS011;10734;44.792;20.482;2023-06-19T05:07:42;8.27;;;4.93;;
21152;SDS011;10734;44.792;20.482;2023-06-19T05:10:12;7.60;;;5.53;;
21152;SDS011;10734;44.792;20.482;2023-06-19T05:12:40;10.82;;;4.88;;
21152;SDS011;10734;44.792;20.482;2023-06-19T05:15:08;10.88;;;5.47;;
21152;SDS011;10734;44.792;20.482;2023-06-19T05:17:37;8.48;;;5.30;;
21152;SDS011;10734;44.792;20.482;2023-06-19T05:20:06;5.68;;;4.75;;
21152;SDS011;10734;44.792;20.482;2023-06-19T05:22:35;5.93;;;4.80;;
21152;SDS011;10734;44.792;20.482;2023-06-19T05:25:04;9.15;;;4.88;;
21152;SDS011;10734;44.792;20.482;2023-06-19T05:27:32;6.32;;;4.88;;
21152;SDS011;10734;44.792;20.482;2023-06-19T05:30:00;8.40;;;5.35;;
21152;SDS011;10734;44.792;20.482;2023-06-19T05:32:28;7.57;;;4.47;;
21152;SDS011;10734;44.792;20.482;2023-06-19T05:34:56;6.10;;;4.55;;
21152;SDS011;10734;44.792;20.482;2023-06-19T05:37:24;8.50;;;4.85;;
21152;SDS011;10734;44.792;20.482;2023-06-19T05:39:54;6.47;;;4.38;;
21152;SDS011;10734;44.792;20.482;2023-06-19T05:42:22;13.02;;;4.70;;
21152;SDS011;10734;44.792;20.482;2023-06-19T05:44:50;6.10;;;4.65;;
21152;SDS011;10734;44.792;20.482;2023-06-19T05:47:17;6.13;;;4.50;;
21152;SDS011;10734;44.792;20.482;2023-06-19T05:49:46;12.32;;;4.90;;
21152;SDS011;10734;44.792;20.482;2023-06-19T05:52:13;6.70;;;4.10;;
21152;SDS011;10734;44.792;20.482;2023-06-19T05:54:40;7.72;;;4.50;;
21152;SDS011;10734;44.792;20.482;2023-06-19T05:57:07;7.75;;;4.55;;
21152;SDS011;10734;44.792;20.482;2023-06-19T05:59:34;9.25;;;4.30;;
21152;SDS011;10734;44.792;20.482;2023-06-19T06:02:01;7.18;;;4.57;;
21152;SDS011;10734;44.792;20.482;2023-06-19T06:04:29;5.60;;;4.28;;
21152;SDS011;10734;44.792;20.482;2023-06-19T06:06:57;7.72;;;4.28;;
21152;SDS011;10734;44.792;20.482;2023-06-19T06:09:23;7.65;;;4.85;;
21152;SDS011;10734;44.792;20.482;2023-06-19T06:11:50;8.20;;;5.28;;
21152;SDS011;10734;44.792;20.482;2023-06-19T06:14:17;8.52;;;5.03;;
21152;SDS011;10734;44.792;20.482;2023-06-19T06:16:44;6.30;;;4.38;;
21152;SDS011;10734;44.792;20.482;2023-06-19T06:19:11;9.98;;;4.68;;
21152;SDS011;10734;44.792;20.482;2023-06-19T06:21:37;9.55;;;5.25;;
21152;SDS011;10734;44.792;20.482;2023-06-19T06:24:04;11.30;;;5.15;;
21152;SDS011;10734;44.792;20.482;2023-06-19T06:26:33;6.43;;;4.13;;
21152;SDS011;10734;44.792;20.482;2023-06-19T06:29:03;6.57;;;4.95;;
21152;SDS011;10734;44.792;20.482;2023-06-19T06:31:31;6.78;;;5.07;;
21152;SDS011;10734;44.792;20.482;2023-06-19T06:33:58;6.63;;;4.55;;
21152;SDS011;10734;44.792;20.482;2023-06-19T06:36:26;8.68;;;4.60;;
21152;SDS011;10734;44.792;20.482;2023-06-19T06:39:01;5.97;;;4.82;;
21152;SDS011;10734;44.792;20.482;2023-06-19T06:41:28;10.68;;;4.65;;
21152;SDS011;10734;44.792;20.482;2023-06-19T06:43:55;13.68;;;5.25;;
21152;SDS011;10734;44.792;20.482;2023-06-19T06:46:22;4.93;;;4.43;;
21152;SDS011;10734;44.792;20.482;2023-06-19T06:48:49;8.77;;;4.32;;
21152;SDS011;10734;44.792;20.482;2023-06-19T06:51:16;5.47;;;4.32;;
21152;SDS011;10734;44.792;20.482;2023-06-19T06:53:43;8.05;;;5.50;;
21152;SDS011;10734;44.792;20.482;2023-06-19T06:56:09;11.30;;;6.03;;
21152;SDS011;10734;44.792;20.482;2023-06-19T06:58:36;9.13;;;5.47;;
21152;SDS011;10734;44.792;20.482;2023-06-19T07:01:04;8.93;;;5.30;;
21152;SDS011;10734;44.792;20.482;2023-06-19T07:03:31;6.53;;;4.57;;
21152;SDS011;10734;44.792;20.482;2023-06-19T07:05:59;5.65;;;4.45;;
21152;SDS011;10734;44.792;20.482;2023-06-19T07:08:25;5.38;;;4.35;;
21152;SDS011;10734;44.792;20.482;2023-06-19T07:10:52;5.97;;;4.45;;
21152;SDS011;10734;44.792;20.482;2023-06-19T07:13:19;7.10;;;4.18;;
21152;SDS011;10734;44.792;20.482;2023-06-19T07:15:46;8.13;;;4.30;;
21152;SDS011;10734;44.792;20.482;2023-06-19T07:18:13;8.18;;;4.55;;
21152;SDS011;10734;44.792;20.482;2023-06-19T07:20:40;7.72;;;4.20;;
21152;SDS011;10734;44.792;20.482;2023-06-19T07:23:06;11.10;;;4.32;;
21152;SDS011;10734;44.792;20.482;2023-06-19T07:25:33;4.40;;;3.95;;
21152;SDS011;10734;44.792;20.482;2023-06-19T07:28:00;7.82;;;4.53;;
21152;SDS011;10734;44.792;20.482;2023-06-19T07:30:27;10.55;;;4.57;;
21152;SDS011;10734;44.792;20.482;2023-06-19T07:32:54;5.20;;;4.43;;
21152;SDS011;10734;44.792;20.482;2023-06-19T07:35:21;8.48;;;3.95;;
21152;SDS011;10734;44.792;20.482;2023-06-19T07:37:48;12.98;;;4.65;;
21152;SDS011;10734;44.792;20.482;2023-06-19T07:40:15;8.38;;;4.40;;
21152;SDS011;10734;44.792;20.482;2023-06-19T07:42:43;6.45;;;4.28;;
21152;SDS011;10734;44.792;20.482;2023-06-19T07:45:10;6.63;;;4.20;;
21152;SDS011;10734;44.792;20.482;2023-06-19T07:47:37;7.60;;;4.45;;
21152;SDS011;10734;44.792;20.482;2023-06-19T07:50:04;6.50;;;4.53;;
21152;SDS011;10734;44.792;20.482;2023-06-19T07:52:31;6.50;;;4.30;;
21152;SDS011;10734;44.792;20.482;2023-06-19T07:54:58;6.90;;;4.57;;
21152;SDS011;10734;44.792;20.482;2023-06-19T07:57:25;8.38;;;4.68;;
21152;SDS011;10734;44.792;20.482;2023-06-19T07:59:53;9.07;;;4.18;;
21152;SDS011;10734;44.792;20.482;2023-06-19T08:02:21;8.63;;;4.70;;
21152;SDS011;10734;44.792;20.482;2023-06-19T08:04:48;14.55;;;5.28;;
21152;SDS011;10734;44.792;20.482;2023-06-19T08:07:15;10.30;;;4.93;;
21152;SDS011;10734;44.792;20.482;2023-06-19T08:09:42;7.47;;;4.85;;
21152;SDS011;10734;44.792;20.482;2023-06-19T08:12:09;7.60;;;5.40;;
21152;SDS011;10734;44.792;20.482;2023-06-19T08:14:36;6.03;;;4.43;;
21152;SDS011;10734;44.792;20.482;2023-06-19T08:17:04;10.40;;;5.05;;
21152;SDS011;10734;44.792;20.482;2023-06-19T08:19:32;9.50;;;4.70;;
21152;SDS011;10734;44.792;20.482;2023-06-19T08:21:59;10.40;;;5.30;;
21152;SDS011;10734;44.792;20.482;2023-06-19T08:24:25;14.55;;;5.57;;
21152;SDS011;10734;44.792;20.482;2023-06-19T08:26:52;8.27;;;4.68;;
21152;SDS011;10734;44.792;20.482;2023-06-19T08:29:19;9.52;;;5.22;;
21152;SDS011;10734;44.792;20.482;2023-06-19T08:31:46;11.23;;;5.15;;
21152;SDS011;10734;44.792;20.482;2023-06-19T08:34:14;15.63;;;5.65;;
21152;SDS011;10734;44.792;20.482;2023-06-19T08:36:48;6.28;;;4.80;;
21152;SDS011;10734;44.792;20.482;2023-06-19T08:39:17;10.55;;;4.65;;
21152;SDS011;10734;44.792;20.482;2023-06-19T08:41:52;10.43;;;5.05;;
21152;SDS011;10734;44.792;20.482;2023-06-19T08:46:49;11.48;;;5.47;;
21152;SDS011;10734;44.792;20.482;2023-06-19T08:49:15;8.68;;;4.60;;
21152;SDS011;10734;44.792;20.482;2023-06-19T08:51:42;9.20;;;4.93;;
21152;SDS011;10734;44.792;20.482;2023-06-19T08:54:09;7.65;;;5.35;;
21152;SDS011;10734;44.792;20.482;2023-06-19T08:56:36;9.93;;;4.97;;
21152;SDS011;10734;44.792;20.482;2023-06-19T08:59:07;9.73;;;5.28;;
21152;SDS011;10734;44.792;20.482;2023-06-19T09:01:36;11.48;;;4.75;;
21152;SDS011;10734;44.792;20.482;2023-06-19T09:04:09;7.55;;;5.25;;
21152;SDS011;10734;44.792;20.482;2023-06-19T09:12:01;6.78;;;5.43;;
21152;SDS011;10734;44.792;20.482;2023-06-19T09:14:35;7.07;;;5.22;;
21152;SDS011;10734;44.792;20.482;2023-06-19T09:17:12;6.30;;;5.10;;
21152;SDS011;10734;44.792;20.482;2023-06-19T09:19:53;5.15;;;4.32;;
21152;SDS011;10734;44.792;20.482;2023-06-19T09:22:24;6.82;;;4.50;;
21152;SDS011;10734;44.792;20.482;2023-06-19T09:24:51;10.18;;;5.03;;
21152;SDS011;10734;44.792;20.482;2023-06-19T09:27:19;5.00;;;4.22;;
21152;SDS011;10734;44.792;20.482;2023-06-19T09:29:47;9.38;;;5.40;;
21152;SDS011;10734;44.792;20.482;2023-06-19T09:32:23;5.38;;;4.63;;
21152;SDS011;10734;44.792;20.482;2023-06-19T09:34:53;7.93;;;4.80;;
21152;SDS011;10734;44.792;20.482;2023-06-19T09:37:23;10.90;;;4.75;;
21152;SDS011;10734;44.792;20.482;2023-06-19T09:39:55;8.68;;;4.32;;
21152;SDS011;10734;44.792;20.482;2023-06-19T09:42:27;6.72;;;4.90;;
21152;SDS011;10734;44.792;20.482;2023-06-19T09:45:05;4.80;;;4.30;;
21152;SDS011;10734;44.792;20.482;2023-06-19T09:47:44;9.45;;;4.28;;
21152;SDS011;10734;44.792;20.482;2023-06-19T09:50:15;8.00;;;4.35;;
21152;SDS011;10734;44.792;20.482;2023-06-19T09:52:43;4.32;;;3.92;;
21152;SDS011;10734;44.792;20.482;2023-06-19T09:55:11;6.20;;;4.32;;
21152;SDS011;10734;44.792;20.482;2023-06-19T09:57:41;7.03;;;4.32;;
21152;SDS011;10734;44.792;20.482;2023-06-19T10:00:10;7.00;;;3.95;;
21152;SDS011;10734;44.792;20.482;2023-06-19T10:02:40;5.60;;;4.00;;
21152;SDS011;10734;44.792;20.482;2023-06-19T10:05:09;4.60;;;4.15;;
21152;SDS011;10734;44.792;20.482;2023-06-19T10:07:44;7.15;;;5.07;;
21152;SDS011;10734;44.792;20.482;2023-06-19T10:10:22;9.93;;;4.93;;
21152;SDS011;10734;44.792;20.482;2023-06-19T10:12:51;5.13;;;4.07;;
21152;SDS011;10734;44.792;20.482;2023-06-19T10:15:22;8.00;;;4.50;;
21152;SDS011;10734;44.792;20.482;2023-06-19T10:18:13;6.10;;;3.97;;
21152;SDS011;10734;44.792;20.482;2023-06-19T10:20:45;4.35;;;3.50;;
21152;SDS011;10734;44.792;20.482;2023-06-19T10:23:16;4.15;;;3.75;;
21152;SDS011;10734;44.792;20.482;2023-06-19T10:25:48;6.28;;;4.35;;
21152;SDS011;10734;44.792;20.482;2023-06-19T10:28:22;7.30;;;4.00;;
21152;SDS011;10734;44.792;20.482;2023-06-19T10:33:47;7.65;;;4.32;;
21152;SDS011;10734;44.792;20.482;2023-06-19T10:36:14;5.00;;;4.07;;
21152;SDS011;10734;44.792;20.482;2023-06-19T10:38:46;6.35;;;4.30;;
21152;SDS011;10734;44.792;20.482;2023-06-19T10:41:16;5.85;;;3.92;;
21152;SDS011;10734;44.792;20.482;2023-06-19T10:43:56;7.53;;;4.03;;
21152;SDS011;10734;44.792;20.482;2023-06-19T10:46:24;4.95;;;4.45;;
21152;SDS011;10734;44.792;20.482;2023-06-19T10:48:55;9.38;;;4.75;;
21152;SDS011;10734;44.792;20.482;2023-06-19T10:51:28;7.45;;;4.40;;
21152;SDS011;10734;44.792;20.482;2023-06-19T10:53:55;4.30;;;3.80;;
21152;SDS011;10734;44.792;20.482;2023-06-19T10:56:22;6.80;;;4.30;;
21152;SDS011;10734;44.792;20.482;2023-06-19T10:59:09;5.18;;;4.68;;
21152;SDS011;10734;44.792;20.482;2023-06-19T11:01:38;8.30;;;4.80;;
21152;SDS011;10734;44.792;20.482;2023-06-19T11:04:12;8.40;;;4.85;;
21152;SDS011;10734;44.792;20.482;2023-06-19T11:06:41;5.75;;;4.60;;
21152;SDS011;10734;44.792;20.482;2023-06-19T11:09:09;7.68;;;5.05;;
21152;SDS011;10734;44.792;20.482;2023-06-19T11:14:06;7.47;;;5.00;;
21152;SDS011;10734;44.792;20.482;2023-06-19T11:16:37;5.88;;;4.72;;
21152;SDS011;10734;44.792;20.482;2023-06-19T11:19:06;8.52;;;5.45;;
21152;SDS011;10734;44.792;20.482;2023-06-19T11:21:44;8.98;;;5.82;;
21152;SDS011;10734;44.792;20.482;2023-06-19T11:24:13;6.13;;;5.18;;
21152;SDS011;10734;44.792;20.482;2023-06-19T11:26:42;8.18;;;5.05;;
21152;SDS011;10734;44.792;20.482;2023-06-19T11:29:23;6.07;;;4.90;;
21152;SDS011;10734;44.792;20.482;2023-06-19T11:32:06;8.45;;;4.65;;
21152;SDS011;10734;44.792;20.482;2023-06-19T11:34:49;8.18;;;4.95;;
21152;SDS011;10734;44.792;20.482;2023-06-19T11:37:20;9.40;;;4.50;;
21152;SDS011;10734;44.792;20.482;2023-06-19T11:39:49;11.13;;;5.82;;
21152;SDS011;10734;44.792;20.482;2023-06-19T11:42:18;9.60;;;5.22;;
21152;SDS011;10734;44.792;20.482;2023-06-19T11:44:52;10.00;;;5.05;;
21152;SDS011;10734;44.792;20.482;2023-06-19T11:47:23;8.23;;;4.63;;
21152;SDS011;10734;44.792;20.482;2023-06-19T11:49:50;8.07;;;5.15;;
21152;SDS011;10734;44.792;20.482;2023-06-19T11:52:17;9.48;;;4.65;;
21152;SDS011;10734;44.792;20.482;2023-06-19T11:54:44;6.35;;;4.82;;
21152;SDS011;10734;44.792;20.482;2023-06-19T11:57:11;8.50;;;5.20;;
21152;SDS011;10734;44.792;20.482;2023-06-19T11:59:41;13.45;;;5.22;;
21152;SDS011;10734;44.792;20.482;2023-06-19T12:02:09;8.38;;;4.75;;
21152;SDS011;10734;44.792;20.482;2023-06-19T12:04:35;7.15;;;4.88;;
21152;SDS011;10734;44.792;20.482;2023-06-19T12:07:02;7.53;;;4.50;;
21152;SDS011;10734;44.792;20.482;2023-06-19T12:09:31;6.05;;;3.97;;
21152;SDS011;10734;44.792;20.482;2023-06-19T12:12:01;5.47;;;4.07;;
21152;SDS011;10734;44.792;20.482;2023-06-19T12:14:29;6.85;;;4.47;;
21152;SDS011;10734;44.792;20.482;2023-06-19T12:16:56;6.47;;;4.28;;
21152;SDS011;10734;44.792;20.482;2023-06-19T12:19:22;6.65;;;4.28;;
21152;SDS011;10734;44.792;20.482;2023-06-19T12:21:50;6.68;;;4.20;;
21152;SDS011;10734;44.792;20.482;2023-06-19T12:24:16;7.65;;;5.03;;
21152;SDS011;10734;44.792;20.482;2023-06-19T12:26:44;10.88;;;5.20;;
21152;SDS011;10734;44.792;20.482;2023-06-19T12:29:11;7.15;;;5.05;;
21152;SDS011;10734;44.792;20.482;2023-06-19T12:31:38;5.47;;;4.60;;
21152;SDS011;10734;44.792;20.482;2023-06-19T12:34:06;9.82;;;5.22;;
21152;SDS011;10734;44.792;20.482;2023-06-19T12:36:50;4.75;;;4.35;;
21152;SDS011;10734;44.792;20.482;2023-06-19T12:39:18;6.05;;;4.82;;
21152;SDS011;10734;44.792;20.482;2023-06-19T12:41:44;6.88;;;4.85;;
21152;SDS011;10734;44.792;20.482;2023-06-19T12:44:11;7.13;;;4.78;;
21152;SDS011;10734;44.792;20.482;2023-06-19T12:46:39;6.97;;;4.63;;
21152;SDS011;10734;44.792;20.482;2023-06-19T12:49:06;6.43;;;4.25;;
21152;SDS011;10734;44.792;20.482;2023-06-19T12:51:33;7.47;;;4.38;;
21152;SDS011;10734;44.792;20.482;2023-06-19T12:54:01;6.00;;;4.70;;
21152;SDS011;10734;44.792;20.482;2023-06-19T12:56:28;6.47;;;4.60;;
21152;SDS011;10734;44.792;20.482;2023-06-19T12:58:56;7.63;;;4.85;;
21152;SDS011;10734;44.792;20.482;2023-06-19T13:01:23;8.02;;;4.90;;
21152;SDS011;10734;44.792;20.482;2023-06-19T13:03:49;9.98;;;5.97;;
21152;SDS011;10734;44.792;20.482;2023-06-19T13:06:16;13.88;;;5.57;;
21152;SDS011;10734;44.792;20.482;2023-06-19T13:08:45;6.13;;;5.13;;
21152;SDS011;10734;44.792;20.482;2023-06-19T13:11:12;6.47;;;4.70;;
21152;SDS011;10734;44.792;20.482;2023-06-19T13:13:40;7.00;;;4.55;;
21152;SDS011;10734;44.792;20.482;2023-06-19T13:16:07;5.25;;;4.80;;
21152;SDS011;10734;44.792;20.482;2023-06-19T13:18:39;8.00;;;5.18;;
21152;SDS011;10734;44.792;20.482;2023-06-19T13:21:06;8.98;;;4.82;;
21152;SDS011;10734;44.792;20.482;2023-06-19T13:23:33;6.25;;;4.97;;
21152;SDS011;10734;44.792;20.482;2023-06-19T13:26:01;6.25;;;4.10;;
21152;SDS011;10734;44.792;20.482;2023-06-19T13:28:27;5.05;;;4.55;;
21152;SDS011;10734;44.792;20.482;2023-06-19T13:30:55;5.28;;;4.78;;
21152;SDS011;10734;44.792;20.482;2023-06-19T13:33:22;5.80;;;4.40;;
21152;SDS011;10734;44.792;20.482;2023-06-19T13:35:51;5.13;;;4.38;;
21152;SDS011;10734;44.792;20.482;2023-06-19T13:38:18;5.13;;;4.43;;
21152;SDS011;10734;44.792;20.482;2023-06-19T13:40:45;6.75;;;4.68;;
21152;SDS011;10734;44.792;20.482;2023-06-19T13:43:12;5.45;;;4.95;;
21152;SDS011;10734;44.792;20.482;2023-06-19T13:45:39;5.32;;;4.82;;
21152;SDS011;10734;44.792;20.482;2023-06-19T13:48:07;6.63;;;5.28;;
21152;SDS011;10734;44.792;20.482;2023-06-19T13:50:34;10.05;;;5.15;;
21152;SDS011;10734;44.792;20.482;2023-06-19T13:53:01;10.20;;;5.18;;
21152;SDS011;10734;44.792;20.482;2023-06-19T13:55:28;12.15;;;5.10;;
21152;SDS011;10734;44.792;20.482;2023-06-19T13:57:55;6.45;;;4.70;;
21152;SDS011;10734;44.792;20.482;2023-06-19T14:00:23;8.27;;;5.22;;
21152;SDS011;10734;44.792;20.482;2023-06-19T14:02:50;11.20;;;4.60;;
21152;SDS011;10734;44.792;20.482;2023-06-19T14:05:17;8.60;;;4.70;;
21152;SDS011;10734;44.792;20.482;2023-06-19T14:07:44;5.13;;;4.63;;
21152;SDS011;10734;44.792;20.482;2023-06-19T14:10:11;4.90;;;4.45;;
21152;SDS011;10734;44.792;20.482;2023-06-19T14:12:39;5.03;;;4.53;;
21152;SDS011;10734;44.792;20.482;2023-06-19T14:15:06;8.20;;;4.57;;
21152;SDS011;10734;44.792;20.482;2023-06-19T14:17:34;6.53;;;4.70;;
21152;SDS011;10734;44.792;20.482;2023-06-19T14:20:02;8.10;;;4.43;;
21152;SDS011;10734;44.792;20.482;2023-06-19T14:22:30;7.60;;;4.05;;
21152;SDS011;10734;44.792;20.482;2023-06-19T14:24:58;5.32;;;4.18;;
21152;SDS011;10734;44.792;20.482;2023-06-19T14:27:28;8.65;;;4.78;;
21152;SDS011;10734;44.792;20.482;2023-06-19T14:29:55;12.82;;;4.90;;
21152;SDS011;10734;44.792;20.482;2023-06-19T14:32:23;6.05;;;4.25;;
21152;SDS011;10734;44.792;20.482;2023-06-19T14:34:51;7.43;;;4.57;;
21152;SDS011;10734;44.792;20.482;2023-06-19T14:37:19;7.65;;;4.40;;
21152;SDS011;10734;44.792;20.482;2023-06-19T14:39:47;7.63;;;4.70;;
21152;SDS011;10734;44.792;20.482;2023-06-19T14:42:13;5.22;;;4.47;;
21152;SDS011;10734;44.792;20.482;2023-06-19T14:44:41;6.50;;;4.30;;
21152;SDS011;10734;44.792;20.482;2023-06-19T14:47:08;5.45;;;3.97;;
21152;SDS011;10734;44.792;20.482;2023-06-19T14:49:36;4.55;;;4.07;;
21152;SDS011;10734;44.792;20.482;2023-06-19T14:52:02;5.13;;;4.32;;
21152;SDS011;10734;44.792;20.482;2023-06-19T14:54:29;6.68;;;4.20;;
21152;SDS011;10734;44.792;20.482;2023-06-19T14:56:57;5.93;;;4.38;;